< < Back
Terminal Aerodrome Forecast


Current Version              Previous Versions:   1  2  3  4  5  6  7  8  9  

Terminal Aerodrome Forecast

336
FTUS42 KGSP 281100
TAFHKY
TAF
KHKY 281122Z 2812/2912 28005KT P6SM SCT220
     FM281600 32011G18KT P6SM FEW060 SCT250
     FM290200 33008KT P6SM SCT250
     FM290600 00000KT P6SM FEW250=

Latest METAR

542
SAUS70 KWBC 290000 RRB
MTRHKY
METAR KHKY 282353Z AUTO 32010KT 10SM CLR 25/13 A2989 RMK AO2 SLP101
T02500133 10294 20250 53001 TSNO


USA.gov is the U.S. government's official web portal to all federal, state and local government web resources and services.